sensor_id;sensor_type;location;lat;lon;timestamp;P1;durP1;ratioP1;P2;durP2;ratioP2
48516;SDS011;34310;51.904;4.256;2023-10-08T00:00:37;25.63;;;20.20;;
48516;SDS011;34310;51.904;4.256;2023-10-08T00:03:03;24.63;;;19.27;;
48516;SDS011;34310;51.904;4.256;2023-10-08T00:05:34;24.08;;;19.90;;
48516;SDS011;34310;51.904;4.256;2023-10-08T00:08:02;24.42;;;19.25;;
48516;SDS011;34310;51.904;4.256;2023-10-08T00:10:28;23.70;;;18.88;;
48516;SDS011;34310;51.904;4.256;2023-10-08T00:12:55;22.67;;;18.83;;
48516;SDS011;34310;51.904;4.256;2023-10-08T00:15:21;22.52;;;18.23;;
48516;SDS011;34310;51.904;4.256;2023-10-08T00:17:48;24.00;;;19.15;;
48516;SDS011;34310;51.904;4.256;2023-10-08T00:20:14;24.10;;;18.77;;
48516;SDS011;34310;51.904;4.256;2023-10-08T00:22:41;22.98;;;18.08;;
48516;SDS011;34310;51.904;4.256;2023-10-08T00:25:08;22.20;;;18.17;;
48516;SDS011;34310;51.904;4.256;2023-10-08T00:27:34;21.65;;;17.90;;
48516;SDS011;34310;51.904;4.256;2023-10-08T00:30:01;22.27;;;17.48;;
48516;SDS011;34310;51.904;4.256;2023-10-08T00:32:27;22.85;;;17.95;;
48516;SDS011;34310;51.904;4.256;2023-10-08T00:34:54;22.33;;;17.38;;
48516;SDS011;34310;51.904;4.256;2023-10-08T00:37:20;21.42;;;17.23;;
48516;SDS011;34310;51.904;4.256;2023-10-08T00:39:47;21.10;;;17.02;;
48516;SDS011;34310;51.904;4.256;2023-10-08T00:42:13;20.35;;;16.42;;
48516;SDS011;34310;51.904;4.256;2023-10-08T00:44:40;19.30;;;15.50;;
48516;SDS011;34310;51.904;4.256;2023-10-08T00:47:06;19.83;;;16.55;;
48516;SDS011;34310;51.904;4.256;2023-10-08T00:49:33;22.15;;;17.02;;
48516;SDS011;34310;51.904;4.256;2023-10-08T00:52:00;19.60;;;15.75;;
48516;SDS011;34310;51.904;4.256;2023-10-08T00:54:27;21.25;;;15.57;;
48516;SDS011;34310;51.904;4.256;2023-10-08T00:56:54;19.08;;;15.73;;
48516;SDS011;34310;51.904;4.256;2023-10-08T00:59:21;19.10;;;15.30;;
48516;SDS011;34310;51.904;4.256;2023-10-08T01:01:48;20.15;;;15.27;;
48516;SDS011;34310;51.904;4.256;2023-10-08T01:04:19;18.60;;;14.98;;
48516;SDS011;34310;51.904;4.256;2023-10-08T01:06:46;18.05;;;14.48;;
48516;SDS011;34310;51.904;4.256;2023-10-08T01:09:12;18.73;;;14.57;;
48516;SDS011;34310;51.904;4.256;2023-10-08T01:11:39;19.42;;;15.02;;
48516;SDS011;34310;51.904;4.256;2023-10-08T01:14:05;19.42;;;15.15;;
48516;SDS011;34310;51.904;4.256;2023-10-08T01:16:32;18.67;;;14.73;;
48516;SDS011;34310;51.904;4.256;2023-10-08T01:18:58;19.17;;;14.75;;
48516;SDS011;34310;51.904;4.256;2023-10-08T01:21:25;17.85;;;14.27;;
48516;SDS011;34310;51.904;4.256;2023-10-08T01:23:54;17.67;;;14.68;;
48516;SDS011;34310;51.904;4.256;2023-10-08T01:26:21;18.45;;;14.10;;
48516;SDS011;34310;51.904;4.256;2023-10-08T01:28:48;17.85;;;14.15;;
48516;SDS011;34310;51.904;4.256;2023-10-08T01:31:14;16.77;;;13.32;;
48516;SDS011;34310;51.904;4.256;2023-10-08T01:33:41;17.95;;;13.15;;
48516;SDS011;34310;51.904;4.256;2023-10-08T01:36:07;16.25;;;13.13;;
48516;SDS011;34310;51.904;4.256;2023-10-08T01:38:33;15.63;;;13.00;;
48516;SDS011;34310;51.904;4.256;2023-10-08T01:41:00;16.40;;;12.88;;
48516;SDS011;34310;51.904;4.256;2023-10-08T01:43:26;17.35;;;13.23;;
48516;SDS011;34310;51.904;4.256;2023-10-08T01:45:53;15.23;;;12.23;;
48516;SDS011;34310;51.904;4.256;2023-10-08T01:48:19;14.93;;;12.60;;
48516;SDS011;34310;51.904;4.256;2023-10-08T01:50:46;15.60;;;12.27;;
48516;SDS011;34310;51.904;4.256;2023-10-08T01:53:14;14.38;;;12.10;;
48516;SDS011;34310;51.904;4.256;2023-10-08T01:55:41;15.95;;;11.65;;
48516;SDS011;34310;51.904;4.256;2023-10-08T01:58:07;14.95;;;11.98;;
48516;SDS011;34310;51.904;4.256;2023-10-08T02:00:34;14.57;;;11.80;;
48516;SDS011;34310;51.904;4.256;2023-10-08T02:03:00;14.73;;;11.27;;
48516;SDS011;34310;51.904;4.256;2023-10-08T02:05:27;13.98;;;11.18;;
48516;SDS011;34310;51.904;4.256;2023-10-08T02:07:53;14.55;;;10.73;;
48516;SDS011;34310;51.904;4.256;2023-10-08T02:10:20;15.60;;;11.88;;
48516;SDS011;34310;51.904;4.256;2023-10-08T02:12:46;15.00;;;11.52;;
48516;SDS011;34310;51.904;4.256;2023-10-08T02:15:13;14.63;;;11.20;;
48516;SDS011;34310;51.904;4.256;2023-10-08T02:17:39;14.65;;;11.18;;
48516;SDS011;34310;51.904;4.256;2023-10-08T02:20:06;12.93;;;10.52;;
48516;SDS011;34310;51.904;4.256;2023-10-08T02:22:33;14.18;;;10.30;;
48516;SDS011;34310;51.904;4.256;2023-10-08T02:24:59;12.13;;;10.20;;
48516;SDS011;34310;51.904;4.256;2023-10-08T02:27:26;13.10;;;9.82;;
48516;SDS011;34310;51.904;4.256;2023-10-08T02:29:53;12.60;;;9.98;;
48516;SDS011;34310;51.904;4.256;2023-10-08T02:32:20;11.55;;;9.60;;
48516;SDS011;34310;51.904;4.256;2023-10-08T02:34:48;14.38;;;9.77;;
48516;SDS011;34310;51.904;4.256;2023-10-08T02:37:15;12.10;;;9.40;;
48516;SDS011;34310;51.904;4.256;2023-10-08T02:39:41;13.35;;;10.05;;
48516;SDS011;34310;51.904;4.256;2023-10-08T02:42:08;12.82;;;9.10;;
48516;SDS011;34310;51.904;4.256;2023-10-08T02:44:34;11.63;;;9.13;;
48516;SDS011;34310;51.904;4.256;2023-10-08T02:47:01;11.57;;;9.38;;
48516;SDS011;34310;51.904;4.256;2023-10-08T02:49:27;12.60;;;8.90;;
48516;SDS011;34310;51.904;4.256;2023-10-08T02:51:54;12.60;;;9.98;;
48516;SDS011;34310;51.904;4.256;2023-10-08T02:54:21;11.88;;;9.18;;
48516;SDS011;34310;51.904;4.256;2023-10-08T02:56:52;11.95;;;8.70;;
48516;SDS011;34310;51.904;4.256;2023-10-08T02:59:19;11.25;;;8.88;;
48516;SDS011;34310;51.904;4.256;2023-10-08T03:01:46;10.63;;;8.10;;
48516;SDS011;34310;51.904;4.256;2023-10-08T03:04:12;9.50;;;7.97;;
48516;SDS011;34310;51.904;4.256;2023-10-08T03:06:39;13.63;;;8.65;;
48516;SDS011;34310;51.904;4.256;2023-10-08T03:09:05;11.00;;;8.50;;
48516;SDS011;34310;51.904;4.256;2023-10-08T03:11:32;11.35;;;8.70;;
48516;SDS011;34310;51.904;4.256;2023-10-08T03:13:58;10.68;;;7.85;;
48516;SDS011;34310;51.904;4.256;2023-10-08T03:16:25;11.55;;;8.38;;
48516;SDS011;34310;51.904;4.256;2023-10-08T03:18:51;9.82;;;7.72;;
48516;SDS011;34310;51.904;4.256;2023-10-08T03:21:18;10.85;;;7.85;;
48516;SDS011;34310;51.904;4.256;2023-10-08T03:23:47;10.52;;;8.00;;
48516;SDS011;34310;51.904;4.256;2023-10-08T03:26:14;11.70;;;7.90;;
48516;SDS011;34310;51.904;4.256;2023-10-08T03:28:40;11.52;;;7.13;;
48516;SDS011;34310;51.904;4.256;2023-10-08T03:31:07;9.98;;;7.60;;
48516;SDS011;34310;51.904;4.256;2023-10-08T03:33:35;9.35;;;7.30;;
48516;SDS011;34310;51.904;4.256;2023-10-08T03:36:02;10.65;;;7.85;;
48516;SDS011;34310;51.904;4.256;2023-10-08T03:38:32;9.23;;;7.15;;
48516;SDS011;34310;51.904;4.256;2023-10-08T03:40:59;10.82;;;7.65;;
48516;SDS011;34310;51.904;4.256;2023-10-08T03:43:25;9.48;;;7.45;;
48516;SDS011;34310;51.904;4.256;2023-10-08T03:45:52;9.98;;;7.32;;
48516;SDS011;34310;51.904;4.256;2023-10-08T03:48:19;9.57;;;7.30;;
48516;SDS011;34310;51.904;4.256;2023-10-08T03:50:46;9.70;;;7.10;;
48516;SDS011;34310;51.904;4.256;2023-10-08T03:53:13;9.82;;;7.43;;
48516;SDS011;34310;51.904;4.256;2023-10-08T03:55:39;10.20;;;6.97;;
48516;SDS011;34310;51.904;4.256;2023-10-08T03:58:06;9.98;;;7.40;;
48516;SDS011;34310;51.904;4.256;2023-10-08T04:00:34;8.68;;;7.15;;
48516;SDS011;34310;51.904;4.256;2023-10-08T04:03:00;8.95;;;6.68;;
48516;SDS011;34310;51.904;4.256;2023-10-08T04:05:27;8.68;;;6.90;;
48516;SDS011;34310;51.904;4.256;2023-10-08T04:07:54;10.35;;;6.68;;
48516;SDS011;34310;51.904;4.256;2023-10-08T04:10:20;8.57;;;6.57;;
48516;SDS011;34310;51.904;4.256;2023-10-08T04:12:47;11.00;;;6.88;;
48516;SDS011;34310;51.904;4.256;2023-10-08T04:15:13;8.20;;;6.57;;
48516;SDS011;34310;51.904;4.256;2023-10-08T04:17:40;9.15;;;6.53;;
48516;SDS011;34310;51.904;4.256;2023-10-08T04:20:07;8.10;;;6.45;;
48516;SDS011;34310;51.904;4.256;2023-10-08T04:22:34;8.52;;;6.60;;
48516;SDS011;34310;51.904;4.256;2023-10-08T04:25:00;8.80;;;5.78;;
48516;SDS011;34310;51.904;4.256;2023-10-08T04:27:27;7.93;;;6.35;;
48516;SDS011;34310;51.904;4.256;2023-10-08T04:29:53;9.00;;;6.40;;
48516;SDS011;34310;51.904;4.256;2023-10-08T04:32:20;8.68;;;6.10;;
48516;SDS011;34310;51.904;4.256;2023-10-08T04:34:46;7.32;;;6.03;;
48516;SDS011;34310;51.904;4.256;2023-10-08T04:37:13;7.43;;;5.80;;
48516;SDS011;34310;51.904;4.256;2023-10-08T04:39:39;7.72;;;6.07;;
48516;SDS011;34310;51.904;4.256;2023-10-08T04:42:06;8.85;;;6.43;;
48516;SDS011;34310;51.904;4.256;2023-10-08T04:44:33;9.25;;;6.18;;
48516;SDS011;34310;51.904;4.256;2023-10-08T04:46:59;7.88;;;5.75;;
48516;SDS011;34310;51.904;4.256;2023-10-08T04:49:26;7.80;;;5.88;;
48516;SDS011;34310;51.904;4.256;2023-10-08T04:51:56;9.30;;;5.72;;
48516;SDS011;34310;51.904;4.256;2023-10-08T04:56:54;9.05;;;6.03;;
48516;SDS011;34310;51.904;4.256;2023-10-08T04:59:20;9.35;;;5.95;;
48516;SDS011;34310;51.904;4.256;2023-10-08T05:01:47;7.75;;;5.80;;
48516;SDS011;34310;51.904;4.256;2023-10-08T05:04:16;7.72;;;5.50;;
48516;SDS011;34310;51.904;4.256;2023-10-08T05:06:42;7.10;;;5.47;;
48516;SDS011;34310;51.904;4.256;2023-10-08T05:09:12;7.55;;;5.10;;
48516;SDS011;34310;51.904;4.256;2023-10-08T05:11:40;8.30;;;5.90;;
48516;SDS011;34310;51.904;4.256;2023-10-08T05:14:06;7.47;;;5.65;;
48516;SDS011;34310;51.904;4.256;2023-10-08T05:16:33;7.15;;;5.22;;
48516;SDS011;34310;51.904;4.256;2023-10-08T05:18:59;7.95;;;5.78;;
48516;SDS011;34310;51.904;4.256;2023-10-08T05:21:26;7.95;;;5.53;;
48516;SDS011;34310;51.904;4.256;2023-10-08T05:23:52;7.15;;;5.22;;
48516;SDS011;34310;51.904;4.256;2023-10-08T05:26:19;8.30;;;5.75;;
48516;SDS011;34310;51.904;4.256;2023-10-08T05:28:45;6.82;;;5.22;;
48516;SDS011;34310;51.904;4.256;2023-10-08T05:31:13;7.70;;;5.50;;
48516;SDS011;34310;51.904;4.256;2023-10-08T05:33:41;6.70;;;5.15;;
48516;SDS011;34310;51.904;4.256;2023-10-08T05:36:08;8.07;;;5.20;;
48516;SDS011;34310;51.904;4.256;2023-10-08T05:38:35;7.18;;;5.50;;
48516;SDS011;34310;51.904;4.256;2023-10-08T05:41:01;6.68;;;5.07;;
48516;SDS011;34310;51.904;4.256;2023-10-08T05:43:28;7.47;;;5.28;;
48516;SDS011;34310;51.904;4.256;2023-10-08T05:45:56;7.65;;;4.88;;
48516;SDS011;34310;51.904;4.256;2023-10-08T05:48:22;6.97;;;5.13;;
48516;SDS011;34310;51.904;4.256;2023-10-08T05:50:49;7.30;;;4.72;;
48516;SDS011;34310;51.904;4.256;2023-10-08T05:53:15;7.70;;;5.15;;
48516;SDS011;34310;51.904;4.256;2023-10-08T05:55:42;7.45;;;5.15;;
48516;SDS011;34310;51.904;4.256;2023-10-08T05:58:08;8.30;;;5.47;;
48516;SDS011;34310;51.904;4.256;2023-10-08T06:00:35;6.88;;;5.20;;
48516;SDS011;34310;51.904;4.256;2023-10-08T06:03:01;8.50;;;5.15;;
48516;SDS011;34310;51.904;4.256;2023-10-08T06:05:28;6.88;;;4.80;;
48516;SDS011;34310;51.904;4.256;2023-10-08T06:07:54;7.18;;;5.13;;
48516;SDS011;34310;51.904;4.256;2023-10-08T06:10:22;9.90;;;5.47;;
48516;SDS011;34310;51.904;4.256;2023-10-08T06:13:06;7.60;;;5.05;;
48516;SDS011;34310;51.904;4.256;2023-10-08T06:15:38;7.35;;;5.00;;
48516;SDS011;34310;51.904;4.256;2023-10-08T06:18:06;7.80;;;4.95;;
48516;SDS011;34310;51.904;4.256;2023-10-08T06:20:34;7.20;;;4.70;;
48516;SDS011;34310;51.904;4.256;2023-10-08T06:23:01;7.15;;;4.82;;
48516;SDS011;34310;51.904;4.256;2023-10-08T06:25:27;9.18;;;4.72;;
48516;SDS011;34310;51.904;4.256;2023-10-08T06:27:54;8.90;;;4.68;;
48516;SDS011;34310;51.904;4.256;2023-10-08T06:30:21;6.15;;;4.75;;
48516;SDS011;34310;51.904;4.256;2023-10-08T06:32:48;8.52;;;4.60;;
48516;SDS011;34310;51.904;4.256;2023-10-08T06:35:15;11.48;;;5.40;;
48516;SDS011;34310;51.904;4.256;2023-10-08T06:37:43;12.90;;;6.60;;
48516;SDS011;34310;51.904;4.256;2023-10-08T06:40:13;12.13;;;6.30;;
48516;SDS011;34310;51.904;4.256;2023-10-08T06:42:40;21.27;;;7.03;;
48516;SDS011;34310;51.904;4.256;2023-10-08T06:45:06;11.93;;;5.53;;
48516;SDS011;34310;51.904;4.256;2023-10-08T06:47:33;13.93;;;5.55;;
48516;SDS011;34310;51.904;4.256;2023-10-08T06:50:00;11.82;;;5.15;;
48516;SDS011;34310;51.904;4.256;2023-10-08T06:52:26;10.80;;;5.82;;
48516;SDS011;34310;51.904;4.256;2023-10-08T06:54:53;11.35;;;5.28;;
48516;SDS011;34310;51.904;4.256;2023-10-08T06:57:19;9.43;;;4.90;;
48516;SDS011;34310;51.904;4.256;2023-10-08T06:59:46;11.50;;;5.25;;
48516;SDS011;34310;51.904;4.256;2023-10-08T07:02:12;13.25;;;5.28;;
48516;SDS011;34310;51.904;4.256;2023-10-08T07:04:39;10.63;;;5.10;;
48516;SDS011;34310;51.904;4.256;2023-10-08T07:07:05;8.73;;;4.85;;
48516;SDS011;34310;51.904;4.256;2023-10-08T07:09:32;9.88;;;5.03;;
48516;SDS011;34310;51.904;4.256;2023-10-08T07:11:58;9.93;;;5.07;;
48516;SDS011;34310;51.904;4.256;2023-10-08T07:14:25;9.60;;;4.60;;
48516;SDS011;34310;51.904;4.256;2023-10-08T07:16:55;10.20;;;5.32;;
48516;SDS011;34310;51.904;4.256;2023-10-08T07:19:22;9.02;;;5.25;;
48516;SDS011;34310;51.904;4.256;2023-10-08T07:21:50;8.07;;;4.35;;
48516;SDS011;34310;51.904;4.256;2023-10-08T07:24:17;7.85;;;4.93;;
48516;SDS011;34310;51.904;4.256;2023-10-08T07:26:44;8.07;;;4.18;;
48516;SDS011;34310;51.904;4.256;2023-10-08T07:29:10;8.45;;;4.60;;
48516;SDS011;34310;51.904;4.256;2023-10-08T07:31:37;8.30;;;4.78;;
48516;SDS011;34310;51.904;4.256;2023-10-08T07:34:04;10.02;;;4.35;;
48516;SDS011;34310;51.904;4.256;2023-10-08T07:36:31;7.80;;;4.25;;
48516;SDS011;34310;51.904;4.256;2023-10-08T07:38:57;6.78;;;4.30;;
48516;SDS011;34310;51.904;4.256;2023-10-08T07:41:24;7.28;;;4.07;;
48516;SDS011;34310;51.904;4.256;2023-10-08T07:43:50;9.20;;;4.32;;
48516;SDS011;34310;51.904;4.256;2023-10-08T07:46:17;8.05;;;4.15;;
48516;SDS011;34310;51.904;4.256;2023-10-08T07:48:43;8.55;;;4.45;;
48516;SDS011;34310;51.904;4.256;2023-10-08T07:51:10;6.97;;;3.97;;
48516;SDS011;34310;51.904;4.256;2023-10-08T07:53:36;7.15;;;3.92;;
48516;SDS011;34310;51.904;4.256;2023-10-08T07:56:06;8.90;;;4.38;;
48516;SDS011;34310;51.904;4.256;2023-10-08T07:58:33;6.80;;;3.75;;
48516;SDS011;34310;51.904;4.256;2023-10-08T08:01:02;9.07;;;4.30;;
48516;SDS011;34310;51.904;4.256;2023-10-08T08:03:29;7.43;;;3.78;;
48516;SDS011;34310;51.904;4.256;2023-10-08T08:05:56;6.88;;;3.55;;
48516;SDS011;34310;51.904;4.256;2023-10-08T08:08:22;9.73;;;4.05;;
48516;SDS011;34310;51.904;4.256;2023-10-08T08:10:49;8.00;;;3.85;;
48516;SDS011;34310;51.904;4.256;2023-10-08T08:13:15;7.60;;;3.92;;
48516;SDS011;34310;51.904;4.256;2023-10-08T08:15:42;7.75;;;4.00;;
48516;SDS011;34310;51.904;4.256;2023-10-08T08:18:11;8.95;;;3.90;;
48516;SDS011;34310;51.904;4.256;2023-10-08T08:20:38;7.53;;;3.75;;
48516;SDS011;34310;51.904;4.256;2023-10-08T08:23:05;8.40;;;3.72;;
48516;SDS011;34310;51.904;4.256;2023-10-08T08:25:38;8.13;;;3.60;;
48516;SDS011;34310;51.904;4.256;2023-10-08T08:28:05;8.77;;;4.22;;
48516;SDS011;34310;51.904;4.256;2023-10-08T08:30:31;8.27;;;4.22;;
48516;SDS011;34310;51.904;4.256;2023-10-08T08:32:58;8.63;;;4.03;;
48516;SDS011;34310;51.904;4.256;2023-10-08T08:35:25;11.75;;;4.10;;
48516;SDS011;34310;51.904;4.256;2023-10-08T08:37:51;8.20;;;4.32;;
48516;SDS011;34310;51.904;4.256;2023-10-08T08:40:18;10.10;;;4.57;;
48516;SDS011;34310;51.904;4.256;2023-10-08T08:42:47;6.72;;;3.47;;
48516;SDS011;34310;51.904;4.256;2023-10-08T08:45:21;7.85;;;4.22;;
48516;SDS011;34310;51.904;4.256;2023-10-08T08:47:49;10.88;;;4.25;;
48516;SDS011;34310;51.904;4.256;2023-10-08T08:50:16;9.00;;;4.13;;
48516;SDS011;34310;51.904;4.256;2023-10-08T08:52:44;7.60;;;3.75;;
48516;SDS011;34310;51.904;4.256;2023-10-08T08:55:11;8.98;;;3.80;;
48516;SDS011;34310;51.904;4.256;2023-10-08T08:57:38;6.10;;;3.35;;
48516;SDS011;34310;51.904;4.256;2023-10-08T09:00:07;8.55;;;4.35;;
48516;SDS011;34310;51.904;4.256;2023-10-08T09:02:35;7.90;;;3.78;;
48516;SDS011;34310;51.904;4.256;2023-10-08T09:05:03;8.18;;;4.00;;
48516;SDS011;34310;51.904;4.256;2023-10-08T09:07:30;9.60;;;4.30;;
48516;SDS011;34310;51.904;4.256;2023-10-08T09:09:57;6.60;;;3.70;;
48516;SDS011;34310;51.904;4.256;2023-10-08T09:12:23;8.02;;;4.13;;
48516;SDS011;34310;51.904;4.256;2023-10-08T09:14:50;7.00;;;3.53;;
48516;SDS011;34310;51.904;4.256;2023-10-08T09:17:17;6.20;;;3.72;;
48516;SDS011;34310;51.904;4.256;2023-10-08T09:19:43;6.63;;;3.67;;
48516;SDS011;34310;51.904;4.256;2023-10-08T09:22:11;7.15;;;3.38;;
48516;SDS011;34310;51.904;4.256;2023-10-08T09:24:38;5.57;;;3.55;;
48516;SDS011;34310;51.904;4.256;2023-10-08T09:27:07;7.68;;;3.95;;
48516;SDS011;34310;51.904;4.256;2023-10-08T09:29:35;6.80;;;3.95;;
48516;SDS011;34310;51.904;4.256;2023-10-08T09:32:03;10.07;;;4.25;;
48516;SDS011;34310;51.904;4.256;2023-10-08T09:34:30;8.10;;;4.10;;
48516;SDS011;34310;51.904;4.256;2023-10-08T09:36:57;6.32;;;3.92;;
48516;SDS011;34310;51.904;4.256;2023-10-08T09:39:25;7.15;;;4.50;;
48516;SDS011;34310;51.904;4.256;2023-10-08T09:41:53;7.20;;;4.03;;
48516;SDS011;34310;51.904;4.256;2023-10-08T09:44:21;7.78;;;4.25;;
48516;SDS011;34310;51.904;4.256;2023-10-08T09:46:51;5.82;;;3.72;;
48516;SDS011;34310;51.904;4.256;2023-10-08T09:49:20;7.32;;;4.20;;
48516;SDS011;34310;51.904;4.256;2023-10-08T09:51:56;7.30;;;4.10;;
48516;SDS011;34310;51.904;4.256;2023-10-08T09:54:27;6.65;;;4.05;;
48516;SDS011;34310;51.904;4.256;2023-10-08T09:56:59;6.43;;;3.83;;
48516;SDS011;34310;51.904;4.256;2023-10-08T09:59:28;6.30;;;4.38;;
48516;SDS011;34310;51.904;4.256;2023-10-08T10:01:55;8.48;;;4.68;;
48516;SDS011;34310;51.904;4.256;2023-10-08T10:04:23;8.38;;;4.75;;
48516;SDS011;34310;51.904;4.256;2023-10-08T10:06:50;7.63;;;4.80;;
48516;SDS011;34310;51.904;4.256;2023-10-08T10:09:20;8.05;;;4.57;;
48516;SDS011;34310;51.904;4.256;2023-10-08T10:11:48;7.63;;;4.90;;
48516;SDS011;34310;51.904;4.256;2023-10-08T10:14:15;8.50;;;4.45;;
48516;SDS011;34310;51.904;4.256;2023-10-08T10:16:42;7.97;;;4.45;;
48516;SDS011;34310;51.904;4.256;2023-10-08T10:19:10;7.13;;;4.50;;
48516;SDS011;34310;51.904;4.256;2023-10-08T10:24:22;6.82;;;3.75;;
48516;SDS011;34310;51.904;4.256;2023-10-08T10:27:10;6.25;;;4.20;;
48516;SDS011;34310;51.904;4.256;2023-10-08T10:29:37;6.25;;;3.85;;
48516;SDS011;34310;51.904;4.256;2023-10-08T10:32:04;6.85;;;3.90;;
48516;SDS011;34310;51.904;4.256;2023-10-08T10:34:30;6.18;;;3.80;;
48516;SDS011;34310;51.904;4.256;2023-10-08T10:36:59;6.82;;;3.72;;
48516;SDS011;34310;51.904;4.256;2023-10-08T10:39:26;5.90;;;3.80;;
48516;SDS011;34310;51.904;4.256;2023-10-08T10:41:53;5.78;;;3.75;;
48516;SDS011;34310;51.904;4.256;2023-10-08T10:44:21;7.10;;;3.70;;
48516;SDS011;34310;51.904;4.256;2023-10-08T10:46:48;6.03;;;3.78;;
48516;SDS011;34310;51.904;4.256;2023-10-08T10:49:14;6.05;;;3.53;;
48516;SDS011;34310;51.904;4.256;2023-10-08T10:51:41;6.15;;;3.40;;
48516;SDS011;34310;51.904;4.256;2023-10-08T10:54:07;7.68;;;3.85;;
48516;SDS011;34310;51.904;4.256;2023-10-08T10:56:34;6.90;;;4.20;;
48516;SDS011;34310;51.904;4.256;2023-10-08T10:59:02;6.25;;;3.47;;
48516;SDS011;34310;51.904;4.256;2023-10-08T11:01:28;5.28;;;3.85;;
48516;SDS011;34310;51.904;4.256;2023-10-08T11:03:56;5.50;;;3.58;;
48516;SDS011;34310;51.904;4.256;2023-10-08T11:06:23;5.32;;;3.40;;
48516;SDS011;34310;51.904;4.256;2023-10-08T11:08:51;4.82;;;3.47;;
48516;SDS011;34310;51.904;4.256;2023-10-08T11:11:19;7.50;;;4.05;;
48516;SDS011;34310;51.904;4.256;2023-10-08T11:13:51;5.40;;;4.00;;
48516;SDS011;34310;51.904;4.256;2023-10-08T11:16:18;6.85;;;4.10;;
48516;SDS011;34310;51.904;4.256;2023-10-08T11:18:48;7.82;;;4.55;;
48516;SDS011;34310;51.904;4.256;2023-10-08T11:21:16;7.65;;;4.25;;
48516;SDS011;34310;51.904;4.256;2023-10-08T11:23:44;7.25;;;4.47;;
48516;SDS011;34310;51.904;4.256;2023-10-08T11:26:14;6.93;;;4.20;;
48516;SDS011;34310;51.904;4.256;2023-10-08T11:28:41;6.18;;;4.18;;
48516;SDS011;34310;51.904;4.256;2023-10-08T11:31:11;7.15;;;4.20;;
48516;SDS011;34310;51.904;4.256;2023-10-08T11:33:39;6.25;;;4.18;;
48516;SDS011;34310;51.904;4.256;2023-10-08T11:36:08;6.43;;;4.18;;
48516;SDS011;34310;51.904;4.256;2023-10-08T11:38:39;7.72;;;4.55;;
48516;SDS011;34310;51.904;4.256;2023-10-08T11:41:10;9.20;;;5.07;;
48516;SDS011;34310;51.904;4.256;2023-10-08T11:43:37;6.72;;;4.57;;
48516;SDS011;34310;51.904;4.256;2023-10-08T11:46:04;6.93;;;4.30;;
48516;SDS011;34310;51.904;4.256;2023-10-08T11:48:30;5.97;;;4.38;;
48516;SDS011;34310;51.904;4.256;2023-10-08T11:50:57;7.97;;;4.55;;
48516;SDS011;34310;51.904;4.256;2023-10-08T11:53:23;6.43;;;4.88;;
48516;SDS011;34310;51.904;4.256;2023-10-08T11:55:50;6.93;;;4.43;;
48516;SDS011;34310;51.904;4.256;2023-10-08T11:58:16;6.15;;;4.55;;
48516;SDS011;34310;51.904;4.256;2023-10-08T12:00:43;6.45;;;4.30;;
48516;SDS011;34310;51.904;4.256;2023-10-08T12:03:12;8.43;;;4.70;;
48516;SDS011;34310;51.904;4.256;2023-10-08T12:05:40;7.13;;;4.70;;
48516;SDS011;34310;51.904;4.256;2023-10-08T12:08:06;7.32;;;5.00;;
48516;SDS011;34310;51.904;4.256;2023-10-08T12:10:33;8.52;;;5.30;;
48516;SDS011;34310;51.904;4.256;2023-10-08T12:12:59;6.72;;;5.15;;
48516;SDS011;34310;51.904;4.256;2023-10-08T12:15:26;8.55;;;4.47;;
48516;SDS011;34310;51.904;4.256;2023-10-08T12:17:52;7.30;;;4.78;;
48516;SDS011;34310;51.904;4.256;2023-10-08T12:20:19;7.13;;;5.15;;
48516;SDS011;34310;51.904;4.256;2023-10-08T12:22:45;6.90;;;4.80;;
48516;SDS011;34310;51.904;4.256;2023-10-08T12:25:12;7.40;;;5.10;;
48516;SDS011;34310;51.904;4.256;2023-10-08T12:27:39;7.80;;;4.95;;
48516;SDS011;34310;51.904;4.256;2023-10-08T12:30:05;9.05;;;5.50;;
48516;SDS011;34310;51.904;4.256;2023-10-08T12:32:32;8.30;;;6.05;;
48516;SDS011;34310;51.904;4.256;2023-10-08T12:34:59;7.32;;;5.50;;
48516;SDS011;34310;51.904;4.256;2023-10-08T12:37:26;8.80;;;5.47;;
48516;SDS011;34310;51.904;4.256;2023-10-08T12:39:52;8.02;;;5.82;;
48516;SDS011;34310;51.904;4.256;2023-10-08T12:42:18;7.93;;;5.97;;
48516;SDS011;34310;51.904;4.256;2023-10-08T12:44:45;8.68;;;5.78;;
48516;SDS011;34310;51.904;4.256;2023-10-08T12:47:14;9.38;;;6.47;;
48516;SDS011;34310;51.904;4.256;2023-10-08T12:49:41;10.82;;;6.60;;
48516;SDS011;34310;51.904;4.256;2023-10-08T12:52:07;9.48;;;6.30;;
48516;SDS011;34310;51.904;4.256;2023-10-08T12:54:34;9.00;;;6.13;;
48516;SDS011;34310;51.904;4.256;2023-10-08T12:57:00;9.55;;;6.25;;
48516;SDS011;34310;51.904;4.256;2023-10-08T12:59:27;8.45;;;6.30;;
48516;SDS011;34310;51.904;4.256;2023-10-08T13:01:55;10.13;;;6.85;;
48516;SDS011;34310;51.904;4.256;2023-10-08T13:04:22;8.35;;;6.30;;
48516;SDS011;34310;51.904;4.256;2023-10-08T13:06:49;9.32;;;6.53;;
48516;SDS011;34310;51.904;4.256;2023-10-08T13:09:15;10.80;;;6.50;;
48516;SDS011;34310;51.904;4.256;2023-10-08T13:11:42;7.82;;;6.30;;
48516;SDS011;34310;51.904;4.256;2023-10-08T13:14:09;8.20;;;6.50;;
48516;SDS011;34310;51.904;4.256;2023-10-08T13:16:35;7.70;;;6.50;;
48516;SDS011;34310;51.904;4.256;2023-10-08T13:19:02;9.95;;;7.50;;
48516;SDS011;34310;51.904;4.256;2023-10-08T13:21:29;10.75;;;7.10;;
48516;SDS011;34310;51.904;4.256;2023-10-08T13:23:55;11.05;;;8.13;;
48516;SDS011;34310;51.904;4.256;2023-10-08T13:26:22;9.77;;;7.68;;
48516;SDS011;34310;51.904;4.256;2023-10-08T13:28:49;11.35;;;7.75;;
48516;SDS011;34310;51.904;4.256;2023-10-08T13:31:15;10.93;;;7.47;;
48516;SDS011;34310;51.904;4.256;2023-10-08T13:33:43;10.15;;;7.80;;
48516;SDS011;34310;51.904;4.256;2023-10-08T13:36:10;11.02;;;7.40;;
48516;SDS011;34310;51.904;4.256;2023-10-08T13:38:44;9.98;;;8.38;;
48516;SDS011;34310;51.904;4.256;2023-10-08T13:41:11;9.80;;;7.75;;
48516;SDS011;34310;51.904;4.256;2023-10-08T13:43:38;10.02;;;7.85;;
48516;SDS011;34310;51.904;4.256;2023-10-08T13:46:06;10.18;;;7.90;;
48516;SDS011;34310;51.904;4.256;2023-10-08T13:48:34;9.57;;;8.25;;
48516;SDS011;34310;51.904;4.256;2023-10-08T13:51:02;9.30;;;7.47;;
48516;SDS011;34310;51.904;4.256;2023-10-08T13:53:30;9.48;;;7.57;;
48516;SDS011;34310;51.904;4.256;2023-10-08T13:55:57;10.27;;;8.00;;
48516;SDS011;34310;51.904;4.256;2023-10-08T13:58:27;9.30;;;7.72;;
48516;SDS011;34310;51.904;4.256;2023-10-08T14:00:54;10.65;;;8.05;;
48516;SDS011;34310;51.904;4.256;2023-10-08T14:03:21;11.25;;;8.73;;
48516;SDS011;34310;51.904;4.256;2023-10-08T14:05:48;9.50;;;8.00;;
48516;SDS011;34310;51.904;4.256;2023-10-08T14:08:14;11.27;;;8.50;;
48516;SDS011;34310;51.904;4.256;2023-10-08T14:10:41;11.20;;;8.68;;
48516;SDS011;34310;51.904;4.256;2023-10-08T14:13:07;11.15;;;8.57;;
48516;SDS011;34310;51.904;4.256;2023-10-08T14:15:34;10.93;;;8.52;;
48516;SDS011;34310;51.904;4.256;2023-10-08T14:18:00;10.38;;;8.52;;
48516;SDS011;34310;51.904;4.256;2023-10-08T14:20:27;11.02;;;8.63;;
48516;SDS011;34310;51.904;4.256;2023-10-08T14:22:54;11.90;;;8.88;;
48516;SDS011;34310;51.904;4.256;2023-10-08T14:25:20;9.90;;;8.73;;
48516;SDS011;34310;51.904;4.256;2023-10-08T14:27:46;10.88;;;8.45;;
48516;SDS011;34310;51.904;4.256;2023-10-08T14:30:13;11.88;;;9.50;;
48516;SDS011;34310;51.904;4.256;2023-10-08T14:32:39;12.38;;;9.27;;
48516;SDS011;34310;51.904;4.256;2023-10-08T14:35:06;10.93;;;9.48;;
48516;SDS011;34310;51.904;4.256;2023-10-08T14:37:33;11.50;;;9.25;;
48516;SDS011;34310;51.904;4.256;2023-10-08T14:39:59;10.82;;;8.65;;
48516;SDS011;34310;51.904;4.256;2023-10-08T14:42:26;11.68;;;9.35;;
48516;SDS011;34310;51.904;4.256;2023-10-08T14:44:52;10.55;;;9.32;;